ItalyFixed distance
Cortina Trail
28 Jun2019
Distance
48km
Finishers
1,5011,055 men446 women
Winning time
4:30:40h
Median pace
5.36km/h
Pace distribution
1,501 finishers · 3.94–10.64 km/h · mean 5.56
Every finisher ran the same 48 km course, so these paces are directly comparable.
Histogram of finisher pace. 1,501 finishers ranged from 3.94 to 10.64 kilometres per hour, with a mean of 5.56 and a median of 5.36. The busiest band is 4.5 to 5.0 kilometres per hour, with 292 finishers.
Results
Ranks 651–700 of 1,501
| Rank | Runner | Time | Pace | Cat. | Placing |
|---|---|---|---|---|---|
| 651 | WAA Arista PRO Team | 8:40:26h | 5.53 | — | 125th F |
| 652 | ASD Podistica Valle Va... | 8:40:30h | 5.53 | — | 126th F |
| 653 | Bikosuadana | 8:40:53h | 5.53 | M35 | 527th M · 108th M35 |
| 654 | 8:40:58h | 5.53 | M35 | 528th M · 109th M35 | |
| 654 | 8:40:58h | 5.53 | M45 | 528th M · 59th M45 | |
| 656 | SRD 315 Sjeverozapad | 8:41:23h | 5.52 | W23 | 127th F · 45th W23 |
| 657 | 8:41:26h | 5.52 | M23 | 530th M · 157th M23 | |
| 658 | Neveroccia Running Team | 8:41:29h | 5.52 | M40 | 531st M · 86th M40 |
| 659 | 8:41:31h | 5.52 | M55 | 532nd M · 21st M55 | |
| 660 | 8:41:38h | 5.52 | W23 | 128th F · 46th W23 | |
| 661 | 8:41:46h | 5.52 | M35 | 533rd M · 110th M35 | |
| 662 | ATL.Valli DI Non E Sole | 8:41:57h | 5.52 | W50 | 129th F · 5th W50 |
| 663 | 8:42:07h | 5.52 | M40 | 534th M · 87th M40 | |
| 664 | 8:42:12h | 5.51 | M40 | 535th M · 88th M40 | |
| 665 | Run4Energy | 8:42:19h | 5.51 | M35 | 536th M · 111th M35 |
| 666 | 47 Anno Domini Triathl... | 8:42:21h | 5.51 | M35 | 537th M · 112th M35 |
| 667 | 8:42:23h | 5.51 | M45 | 538th M · 60th M45 | |
| 668 | Runners Bergamo | 8:42:29h | 5.51 | W50 | 130th F · 6th W50 |
| 669 | 8:42:40h | 5.51 | M40 | 539th M · 89th M40 | |
| 670 | 8:42:48h | 5.51 | M23 | 540th M · 158th M23 | |
| 671 | ASD Gente Fuori Strada | 8:42:56h | 5.51 | M23 | 541st M · 159th M23 |
| 672 | Aldo Moro Paluzza | 8:43:15h | 5.50 | WU23 | 131st F · 1st WU23 |
| 673 | Fellippa Running Team | 8:43:18h | 5.50 | W35 | 132nd F · 22nd W35 |
| 674 | Atletica Sopralapanca | 8:43:20h | 5.50 | — | 542nd M |
| 675 | 100%Animatrail | 8:43:27h | 5.50 | M45 | 543rd M · 61st M45 |
| 676 | Ilya Markov Team | 8:43:44h | 5.50 | M40 | 544th M · 90th M40 |
| 677 | Ilya Markov Team | 8:43:45h | 5.50 | W40 | 133rd F · 18th W40 |
| 678 | Atletica Cortina | 8:44:09h | 5.50 | M50 | 545th M · 34th M50 |
| 679 | #Letsrunazores | 8:44:47h | 5.49 | W45 | 134th F · 13th W45 |
| 680 | 8:44:51h | 5.49 | M23 | 546th M · 160th M23 | |
| 681 | 8:45:35h | 5.48 | M45 | 547th M · 62nd M45 | |
| 682 | 8:45:38h | 5.48 | M23 | 548th M · 161st M23 | |
| 683 | Trail Runner Finale Li... | 8:45:55h | 5.48 | M23 | 549th M · 162nd M23 |
| 684 | Runners Bergamo | 8:46:41h | 5.47 | — | 550th M |
| 685 | Midnight Runners | 8:46:47h | 5.47 | M40 | 551st M · 91st M40 |
| 686 | Fuel TO Run | 8:47:31h | 5.46 | M40 | 552nd M · 92nd M40 |
| 686 | 8:47:31h | 5.46 | M35 | 552nd M · 113th M35 | |
| 688 | 8:48:00h | 5.46 | M50 | 554th M · 35th M50 | |
| 689 | ASD Amici Dello Sport ... | 8:48:28h | 5.45 | M50 | 555th M · 36th M50 |
| 690 | Serpentine | 8:48:35h | 5.45 | W23 | 135th F · 47th W23 |
| 691 | SEA Kayak Billdal | 8:48:48h | 5.45 | M50 | 556th M · 37th M50 |
| 692 | Atletica E Podismo Cas... | 8:48:53h | 5.45 | M45 | 557th M · 63rd M45 |
| 693 | Run.HR | 8:48:54h | 5.45 | M55 | 558th M · 22nd M55 |
| 694 | Tri-Anglia | 8:48:56h | 5.45 | M60 | 559th M · 4th M60 |
| 695 | 8:49:02h | 5.44 | W23 | 136th F · 48th W23 | |
| 696 | Paris Running Club | 8:49:12h | 5.44 | W23 | 137th F · 49th W23 |
| 697 | 8:49:18h | 5.44 | M55 | 560th M · 23rd M55 | |
| 698 | 8:49:26h | 5.44 | — | 561st M | |
| 698 | 8:49:26h | 5.44 | M45 | 561st M · 64th M45 | |
| 700 | Forli Trail | 8:49:28h | 5.44 | W45 | 138th F · 14th W45 |
- 651WAA Arista PRO Team125th FTime8:40:26hPace5.53
- 652ASD Podistica Valle Va...126th FTime8:40:30hPace5.53
- 653Bikosuadana527th M · 108th M35Time8:40:53hPace5.53Cat.M35
- 654528th M · 109th M35Time8:40:58hPace5.53Cat.M35
- 654528th M · 59th M45Time8:40:58hPace5.53Cat.M45
- 656SRD 315 Sjeverozapad127th F · 45th W23Time8:41:23hPace5.52Cat.W23
- 657530th M · 157th M23Time8:41:26hPace5.52Cat.M23
- 658Neveroccia Running Team531st M · 86th M40Time8:41:29hPace5.52Cat.M40
- 659532nd M · 21st M55Time8:41:31hPace5.52Cat.M55
- 660128th F · 46th W23Time8:41:38hPace5.52Cat.W23
- 661533rd M · 110th M35Time8:41:46hPace5.52Cat.M35
- 662ATL.Valli DI Non E Sole129th F · 5th W50Time8:41:57hPace5.52Cat.W50
- 663534th M · 87th M40Time8:42:07hPace5.52Cat.M40
- 664535th M · 88th M40Time8:42:12hPace5.51Cat.M40
- 665Run4Energy536th M · 111th M35Time8:42:19hPace5.51Cat.M35
- 66647 Anno Domini Triathl...537th M · 112th M35Time8:42:21hPace5.51Cat.M35
- 667538th M · 60th M45Time8:42:23hPace5.51Cat.M45
- 668Runners Bergamo130th F · 6th W50Time8:42:29hPace5.51Cat.W50
- 669539th M · 89th M40Time8:42:40hPace5.51Cat.M40
- 670540th M · 158th M23Time8:42:48hPace5.51Cat.M23
- 671ASD Gente Fuori Strada541st M · 159th M23Time8:42:56hPace5.51Cat.M23
- 672Aldo Moro Paluzza131st F · 1st WU23Time8:43:15hPace5.50Cat.WU23
- 673Fellippa Running Team132nd F · 22nd W35Time8:43:18hPace5.50Cat.W35
- 674Atletica Sopralapanca542nd MTime8:43:20hPace5.50
- 675100%Animatrail543rd M · 61st M45Time8:43:27hPace5.50Cat.M45
- 676Ilya Markov Team544th M · 90th M40Time8:43:44hPace5.50Cat.M40
- 677Ilya Markov Team133rd F · 18th W40Time8:43:45hPace5.50Cat.W40
- 678Atletica Cortina545th M · 34th M50Time8:44:09hPace5.50Cat.M50
- 679#Letsrunazores134th F · 13th W45Time8:44:47hPace5.49Cat.W45
- 680546th M · 160th M23Time8:44:51hPace5.49Cat.M23
- 681547th M · 62nd M45Time8:45:35hPace5.48Cat.M45
- 682548th M · 161st M23Time8:45:38hPace5.48Cat.M23
- 683Trail Runner Finale Li...549th M · 162nd M23Time8:45:55hPace5.48Cat.M23
- 684Runners Bergamo550th MTime8:46:41hPace5.47
- 685Midnight Runners551st M · 91st M40Time8:46:47hPace5.47Cat.M40
- 686Fuel TO Run552nd M · 92nd M40Time8:47:31hPace5.46Cat.M40
- 686552nd M · 113th M35Time8:47:31hPace5.46Cat.M35
- 688554th M · 35th M50Time8:48:00hPace5.46Cat.M50
- 689ASD Amici Dello Sport ...555th M · 36th M50Time8:48:28hPace5.45Cat.M50
- 690Serpentine135th F · 47th W23Time8:48:35hPace5.45Cat.W23
- 691SEA Kayak Billdal556th M · 37th M50Time8:48:48hPace5.45Cat.M50
- 692Atletica E Podismo Cas...557th M · 63rd M45Time8:48:53hPace5.45Cat.M45
- 693Run.HR558th M · 22nd M55Time8:48:54hPace5.45Cat.M55
- 694Tri-Anglia559th M · 4th M60Time8:48:56hPace5.45Cat.M60
- 695136th F · 48th W23Time8:49:02hPace5.44Cat.W23
- 696Paris Running Club137th F · 49th W23Time8:49:12hPace5.44Cat.W23
- 697560th M · 23rd M55Time8:49:18hPace5.44Cat.M55
- 698561st MTime8:49:26hPace5.44
- 698561st M · 64th M45Time8:49:26hPace5.44Cat.M45
- 700Forli Trail138th F · 14th W45Time8:49:28hPace5.44Cat.W45
Showing ranks 651–700 of 1,501